Time;durP1;ratioP1;P1;durP2;ratioP2;P2;SDS_P1;SDS_P2;PMS_P1;PMS_P2;Temp;Humidity;BMP_temperature;BMP_pressure;BME280_temperature;BME280_humidity;BME280_pressure;Samples;Min_cycle;Max_cycle;Signal;HPM_P1;HPM_P2
2023/07/22 00:00:11;;;;;;;12.32;8.13;;;;;;;;;;5106285;28;20076;-63
2023/07/22 00:02:38;;;;;;;10.48;8.90;;;;;;;;;;5102163;28;20524;-63
2023/07/22 00:05:03;;;;;;;10.98;7.82;;;;;;;;;;5106896;28;20044;-63
2023/07/22 00:07:29;;;;;;;11.82;8.40;;;;;;;;;;5111564;28;20073;-63
2023/07/22 00:09:54;;;;;;;9.63;7.90;;;;;;;;;;5096142;28;20025;-63
2023/07/22 00:12:19;;;;;;;10.93;8.00;;;;;;;;;;5103319;28;20016;-64
2023/07/22 00:14:44;;;;;;;8.43;7.53;;;;;;;;;;5114277;28;20412;-64
2023/07/22 00:17:10;;;;;;;9.63;7.32;;;;;;;;;;5114493;28;20019;-64
2023/07/22 00:19:35;;;;;;;11.75;7.75;;;;;;;;;;5114561;28;20028;-63
2023/07/22 00:22:01;;;;;;;9.25;7.32;;;;;;;;;;5114530;28;20555;-64
2023/07/22 00:24:26;;;;;;;10.52;8.55;;;;;;;;;;5113854;28;20069;-64
2023/07/22 00:26:51;;;;;;;10.60;7.57;;;;;;;;;;5104912;28;20141;-64
2023/07/22 00:29:17;;;;;;;11.17;8.53;;;;;;;;;;5113084;28;20373;-63
2023/07/22 00:31:42;;;;;;;13.85;7.53;;;;;;;;;;5113727;28;20266;-63
2023/07/22 00:34:08;;;;;;;9.80;8.20;;;;;;;;;;5112450;28;20034;-64
2023/07/22 00:36:33;;;;;;;10.10;7.50;;;;;;;;;;5113725;28;20027;-63
2023/07/22 00:38:58;;;;;;;10.80;7.95;;;;;;;;;;5113464;28;20023;-64
2023/07/22 00:41:23;;;;;;;12.27;8.77;;;;;;;;;;5113344;28;20028;-63
2023/07/22 00:43:49;;;;;;;11.32;7.35;;;;;;;;;;5094606;28;20787;-63
2023/07/22 00:46:14;;;;;;;11.15;8.02;;;;;;;;;;5095467;28;20020;-63
2023/07/22 00:48:40;;;;;;;10.40;7.75;;;;;;;;;;5110971;28;20027;-64
2023/07/22 00:51:05;;;;;;;10.30;7.35;;;;;;;;;;5094787;28;20024;-63
2023/07/22 00:53:30;;;;;;;13.20;8.80;;;;;;;;;;5096468;28;20020;-63
2023/07/22 00:55:55;;;;;;;9.13;7.55;;;;;;;;;;5094642;28;20278;-63
2023/07/22 00:58:21;;;;;;;11.13;8.38;;;;;;;;;;5094185;28;20359;-63
2023/07/22 01:00:46;;;;;;;12.90;7.80;;;;;;;;;;5093759;28;20067;-63
2023/07/22 01:03:12;;;;;;;12.05;8.75;;;;;;;;;;5102885;28;20046;-63
2023/07/22 01:05:38;;;;;;;12.05;7.78;;;;;;;;;;5114035;28;20024;-63
2023/07/22 01:08:04;;;;;;;12.45;8.32;;;;;;;;;;5109153;28;20047;-63
2023/07/22 01:10:29;;;;;;;11.57;7.80;;;;;;;;;;5106292;28;20474;-63
2023/07/22 01:12:55;;;;;;;12.68;9.68;;;;;;;;;;5095384;28;20039;-63
2023/07/22 01:15:20;;;;;;;13.70;8.52;;;;;;;;;;5114511;28;20465;-63
2023/07/22 01:17:46;;;;;;;12.45;9.25;;;;;;;;;;5113338;28;20022;-63
2023/07/22 01:20:12;;;;;;;16.77;9.48;;;;;;;;;;5109032;28;20024;-63
2023/07/22 01:22:38;;;;;;;14.43;10.02;;;;;;;;;;5096465;28;20024;-63
2023/07/22 01:25:04;;;;;;;11.18;8.73;;;;;;;;;;5093705;28;20481;-63
2023/07/22 01:27:29;;;;;;;10.35;8.95;;;;;;;;;;5093846;28;20016;-63
2023/07/22 01:29:54;;;;;;;11.80;8.70;;;;;;;;;;5094296;28;20388;-63
2023/07/22 01:32:22;;;;;;;12.05;8.75;;;;;;;;;;5093978;28;20012;-63
2023/07/22 01:34:47;;;;;;;19.30;8.77;;;;;;;;;;5094026;28;20447;-63
2023/07/22 01:37:13;;;;;;;11.05;8.77;;;;;;;;;;5105920;28;20026;-63
2023/07/22 01:39:38;;;;;;;14.57;8.35;;;;;;;;;;5095148;28;20081;-63
2023/07/22 01:42:03;;;;;;;10.93;7.95;;;;;;;;;;5097497;28;20034;-64
2023/07/22 01:44:30;;;;;;;9.75;7.53;;;;;;;;;;5094434;28;20032;-64
2023/07/22 01:46:56;;;;;;;10.23;8.07;;;;;;;;;;5094301;28;20467;-64
2023/07/22 01:49:21;;;;;;;10.57;7.80;;;;;;;;;;5108012;28;20113;-64
2023/07/22 01:51:46;;;;;;;14.38;8.65;;;;;;;;;;5106800;28;20035;-64
2023/07/22 01:54:12;;;;;;;10.30;8.32;;;;;;;;;;5096514;28;20020;-64
2023/07/22 01:56:38;;;;;;;10.88;8.48;;;;;;;;;;5108178;28;20378;-64
2023/07/22 01:59:03;;;;;;;11.88;8.63;;;;;;;;;;5111217;28;20024;-64
2023/07/22 02:01:28;;;;;;;13.02;9.05;;;;;;;;;;5103298;28;20119;-64
2023/07/22 02:03:54;;;;;;;10.55;8.05;;;;;;;;;;5112771;28;20027;-64
2023/07/22 02:06:19;;;;;;;16.55;8.48;;;;;;;;;;5113286;28;20106;-64
2023/07/22 02:08:45;;;;;;;11.25;8.48;;;;;;;;;;5112518;28;20027;-64
2023/07/22 02:11:11;;;;;;;14.77;9.40;;;;;;;;;;5112750;28;20026;-64
2023/07/22 02:13:36;;;;;;;11.05;8.95;;;;;;;;;;5113240;28;20098;-64
2023/07/22 02:16:01;;;;;;;11.07;9.18;;;;;;;;;;5101212;28;20016;-64
2023/07/22 02:18:27;;;;;;;12.70;9.02;;;;;;;;;;5094184;28;20028;-64
2023/07/22 02:20:53;;;;;;;12.00;8.45;;;;;;;;;;5093810;28;20498;-64
2023/07/22 02:23:18;;;;;;;13.90;8.98;;;;;;;;;;5093908;28;20024;-64
2023/07/22 02:25:43;;;;;;;14.85;9.43;;;;;;;;;;5093461;28;20016;-63
2023/07/22 02:28:09;;;;;;;21.67;10.35;;;;;;;;;;5092888;28;20035;-63
2023/07/22 02:30:34;;;;;;;13.63;9.90;;;;;;;;;;5102583;28;20028;-64
2023/07/22 02:33:01;;;;;;;12.27;8.93;;;;;;;;;;5109911;28;20102;-63
2023/07/22 02:35:26;;;;;;;18.60;10.13;;;;;;;;;;5093302;28;20024;-64
2023/07/22 02:37:51;;;;;;;13.63;9.23;;;;;;;;;;5094340;28;20026;-63
2023/07/22 02:40:16;;;;;;;15.18;10.50;;;;;;;;;;5093597;28;20016;-64
2023/07/22 02:42:42;;;;;;;12.47;9.47;;;;;;;;;;5093929;28;20528;-63
2023/07/22 02:45:10;;;;;;;16.02;10.93;;;;;;;;;;5105800;28;20744;-63
2023/07/22 02:47:35;;;;;;;14.32;9.88;;;;;;;;;;5104753;28;20020;-63
2023/07/22 02:50:01;;;;;;;15.13;10.70;;;;;;;;;;5096508;28;20433;-64
2023/07/22 02:52:26;;;;;;;12.82;9.35;;;;;;;;;;5109477;28;20027;-64
2023/07/22 02:55:10;;;;;;;11.93;9.57;;;;;;;;;;5105726;28;20028;-64
2023/07/22 02:57:36;;;;;;;13.38;10.25;;;;;;;;;;5103813;28;20035;-64
2023/07/22 03:00:06;;;;;;;10.82;9.13;;;;;;;;;;5092282;28;20028;-64
2023/07/22 03:02:32;;;;;;;13.27;9.43;;;;;;;;;;5111109;28;20477;-64
2023/07/22 03:04:57;;;;;;;12.25;8.68;;;;;;;;;;5112324;28;20024;-64
2023/07/22 03:07:23;;;;;;;16.25;10.00;;;;;;;;;;5094756;28;20098;-64
2023/07/22 03:09:48;;;;;;;12.50;9.48;;;;;;;;;;5094383;28;20127;-64
2023/07/22 03:12:13;;;;;;;12.10;9.17;;;;;;;;;;5094992;28;20020;-64
2023/07/22 03:14:38;;;;;;;14.43;9.70;;;;;;;;;;5093172;28;20274;-64
2023/07/22 03:17:04;;;;;;;15.07;8.27;;;;;;;;;;5106035;28;20276;-64
2023/07/22 03:19:29;;;;;;;10.95;8.60;;;;;;;;;;5102328;28;20389;-63
2023/07/22 03:21:54;;;;;;;13.65;9.02;;;;;;;;;;5096748;28;20032;-64
2023/07/22 03:24:20;;;;;;;9.18;8.27;;;;;;;;;;5094036;28;20466;-63
2023/07/22 03:26:45;;;;;;;10.30;8.55;;;;;;;;;;5095261;28;20020;-63
2023/07/22 03:29:10;;;;;;;13.75;8.50;;;;;;;;;;5101977;28;20047;-63
2023/07/22 03:31:35;;;;;;;13.55;8.38;;;;;;;;;;5096775;28;20024;-63
2023/07/22 03:34:01;;;;;;;10.65;8.38;;;;;;;;;;5093096;28;20091;-63
2023/07/22 03:36:26;;;;;;;13.23;8.57;;;;;;;;;;5095182;28;20030;-63
2023/07/22 03:38:52;;;;;;;11.48;8.70;;;;;;;;;;5101449;28;20277;-63
2023/07/22 03:41:17;;;;;;;15.80;8.55;;;;;;;;;;5096297;28;20024;-63
2023/07/22 03:43:43;;;;;;;13.27;9.63;;;;;;;;;;5098137;28;20029;-63
2023/07/22 03:46:08;;;;;;;10.10;9.02;;;;;;;;;;5113072;28;20039;-65
2023/07/22 03:48:34;;;;;;;12.32;9.90;;;;;;;;;;5115444;28;20023;-64
2023/07/22 03:50:59;;;;;;;12.85;9.35;;;;;;;;;;5114931;28;20035;-65
2023/07/22 03:53:24;;;;;;;20.05;10.82;;;;;;;;;;5108734;28;20024;-65
2023/07/22 03:55:50;;;;;;;12.83;9.93;;;;;;;;;;5108663;28;20030;-65
2023/07/22 03:58:15;;;;;;;15.23;10.60;;;;;;;;;;5104992;28;20352;-65
2023/07/22 04:00:41;;;;;;;13.95;9.80;;;;;;;;;;5094965;28;20308;-64
2023/07/22 04:03:06;;;;;;;12.77;10.55;;;;;;;;;;5105963;28;20458;-64
2023/07/22 04:05:31;;;;;;;17.33;11.73;;;;;;;;;;5114687;28;20028;-64
2023/07/22 04:07:57;;;;;;;14.70;10.90;;;;;;;;;;5111787;28;20020;-64
2023/07/22 04:10:22;;;;;;;17.08;11.05;;;;;;;;;;5114851;28;20034;-63
2023/07/22 04:12:47;;;;;;;17.35;11.68;;;;;;;;;;5115181;28;20059;-64
2023/07/22 04:15:13;;;;;;;14.27;11.73;;;;;;;;;;5114508;28;20016;-64
2023/07/22 04:17:38;;;;;;;18.92;12.40;;;;;;;;;;5114994;28;20364;-63
2023/07/22 04:20:04;;;;;;;16.88;11.00;;;;;;;;;;5114533;28;20385;-63
2023/07/22 04:22:30;;;;;;;15.55;11.45;;;;;;;;;;5110968;28;20034;-63
2023/07/22 04:24:55;;;;;;;14.43;11.52;;;;;;;;;;5106013;28;20027;-63
2023/07/22 04:27:20;;;;;;;14.90;11.77;;;;;;;;;;5109667;28;20103;-63
2023/07/22 04:29:45;;;;;;;13.02;11.50;;;;;;;;;;5097325;28;20032;-63
2023/07/22 04:32:11;;;;;;;15.32;12.55;;;;;;;;;;5103007;28;20685;-63
2023/07/22 04:34:36;;;;;;;15.25;12.23;;;;;;;;;;5107043;28;20046;-63
2023/07/22 04:37:01;;;;;;;19.10;13.75;;;;;;;;;;5104384;28;20028;-64
2023/07/22 04:39:27;;;;;;;18.73;12.63;;;;;;;;;;5108949;28;20475;-64
2023/07/22 04:41:53;;;;;;;16.63;13.48;;;;;;;;;;5100425;28;20028;-64
2023/07/22 04:44:19;;;;;;;15.90;12.18;;;;;;;;;;5106186;28;20040;-64
2023/07/22 04:46:44;;;;;;;14.52;12.35;;;;;;;;;;5113327;28;20024;-63
2023/07/22 04:49:09;;;;;;;19.48;13.77;;;;;;;;;;5113865;28;20023;-64
2023/07/22 04:51:34;;;;;;;19.25;12.70;;;;;;;;;;5112400;28;20050;-63
2023/07/22 04:54:00;;;;;;;14.80;12.23;;;;;;;;;;5113559;28;20431;-63
2023/07/22 04:56:25;;;;;;;17.80;13.63;;;;;;;;;;5113174;28;20318;-63
2023/07/22 04:58:50;;;;;;;13.10;11.73;;;;;;;;;;5100588;28;20274;-63
2023/07/22 05:01:15;;;;;;;16.30;11.80;;;;;;;;;;5114194;28;20331;-63
2023/07/22 05:03:41;;;;;;;18.80;12.15;;;;;;;;;;5101135;28;20376;-63
2023/07/22 05:06:06;;;;;;;21.15;13.25;;;;;;;;;;5094239;28;20027;-63
2023/07/22 05:08:31;;;;;;;18.92;12.77;;;;;;;;;;5094237;28;20520;-63
2023/07/22 05:10:56;;;;;;;15.43;12.52;;;;;;;;;;5102556;28;20031;-63
2023/07/22 05:13:22;;;;;;;19.33;13.55;;;;;;;;;;5100822;28;20024;-63
2023/07/22 05:15:47;;;;;;;19.00;13.55;;;;;;;;;;5113808;28;20053;-63
2023/07/22 05:18:12;;;;;;;22.25;13.52;;;;;;;;;;5100398;28;20394;-63
2023/07/22 05:20:39;;;;;;;17.70;13.17;;;;;;;;;;5114282;28;20023;-63
2023/07/22 05:23:04;;;;;;;16.83;13.55;;;;;;;;;;5113504;28;20280;-63
2023/07/22 05:25:29;;;;;;;24.17;13.73;;;;;;;;;;5114057;28;20027;-62
2023/07/22 05:27:54;;;;;;;17.80;14.00;;;;;;;;;;5112430;28;20450;-63
2023/07/22 05:30:20;;;;;;;12.98;11.50;;;;;;;;;;5113369;28;20679;-63
2023/07/22 05:32:45;;;;;;;19.05;13.15;;;;;;;;;;5113093;28;20023;-63
2023/07/22 05:35:10;;;;;;;15.85;12.65;;;;;;;;;;5113480;28;20020;-63
2023/07/22 05:37:35;;;;;;;15.25;13.07;;;;;;;;;;5112628;28;20062;-63
2023/07/22 05:40:01;;;;;;;14.82;11.95;;;;;;;;;;5113656;28;20083;-62
2023/07/22 05:42:27;;;;;;;19.58;13.30;;;;;;;;;;5111423;28;20047;-63
2023/07/22 05:44:54;;;;;;;19.15;13.45;;;;;;;;;;5113202;28;20028;-63
2023/07/22 05:47:19;;;;;;;17.50;12.73;;;;;;;;;;5098661;28;20031;-63
2023/07/22 05:49:44;;;;;;;21.53;14.00;;;;;;;;;;5101103;28;20020;-63
2023/07/22 05:52:09;;;;;;;15.20;12.07;;;;;;;;;;5099848;28;20278;-62
2023/07/22 05:54:35;;;;;;;17.03;12.67;;;;;;;;;;5095153;28;20363;-62
2023/07/22 05:57:00;;;;;;;17.73;12.57;;;;;;;;;;5097437;28;20299;-64
2023/07/22 05:59:25;;;;;;;17.07;14.17;;;;;;;;;;5098936;28;20092;-63
2023/07/22 06:01:50;;;;;;;14.45;12.63;;;;;;;;;;5112860;28;20758;-63
2023/07/22 06:04:16;;;;;;;17.17;12.80;;;;;;;;;;5111571;28;20024;-63
2023/07/22 06:06:41;;;;;;;20.67;13.05;;;;;;;;;;5112734;28;20479;-63
2023/07/22 06:09:06;;;;;;;19.87;13.73;;;;;;;;;;5111737;28;20066;-63
2023/07/22 06:11:31;;;;;;;15.65;13.07;;;;;;;;;;5112450;28;20691;-63
2023/07/22 06:13:56;;;;;;;16.40;11.47;;;;;;;;;;5111040;28;20042;-63
2023/07/22 06:16:22;;;;;;;30.77;12.67;;;;;;;;;;5111892;28;20305;-63
2023/07/22 06:18:47;;;;;;;16.33;11.63;;;;;;;;;;5110175;28;20265;-63
2023/07/22 06:21:12;;;;;;;25.50;12.50;;;;;;;;;;5111540;28;20485;-63
2023/07/22 06:23:37;;;;;;;25.85;12.15;;;;;;;;;;5110760;28;20024;-63
2023/07/22 06:26:03;;;;;;;18.60;12.70;;;;;;;;;;5111922;28;20020;-63
2023/07/22 06:28:28;;;;;;;14.85;12.35;;;;;;;;;;5107139;28;20039;-64
2023/07/22 06:30:53;;;;;;;15.63;11.95;;;;;;;;;;5111130;28;20344;-63
2023/07/22 06:33:18;;;;;;;25.08;13.18;;;;;;;;;;5110726;28;20023;-63
2023/07/22 06:35:44;;;;;;;18.55;12.20;;;;;;;;;;5110826;28;20078;-63
2023/07/22 06:38:09;;;;;;;18.33;12.93;;;;;;;;;;5109365;28;20043;-63
2023/07/22 06:40:34;;;;;;;13.90;11.70;;;;;;;;;;5110912;28;20281;-63
2023/07/22 06:42:59;;;;;;;16.47;11.53;;;;;;;;;;5097398;28;20293;-63
2023/07/22 06:45:25;;;;;;;20.63;13.60;;;;;;;;;;5105006;28;20298;-63
2023/07/22 06:47:50;;;;;;;13.93;11.10;;;;;;;;;;5106994;28;20735;-63
2023/07/22 06:50:15;;;;;;;16.93;12.47;;;;;;;;;;5112306;28;20027;-63
2023/07/22 06:52:40;;;;;;;19.70;13.32;;;;;;;;;;5108925;28;20273;-62
2023/07/22 06:55:06;;;;;;;18.33;12.93;;;;;;;;;;5107356;28;20072;-62
2023/07/22 06:57:32;;;;;;;23.33;12.15;;;;;;;;;;5104090;28;20740;-63
2023/07/22 06:59:58;;;;;;;17.33;11.82;;;;;;;;;;5103617;28;20069;-62
2023/07/22 07:02:23;;;;;;;21.08;11.43;;;;;;;;;;5098198;28;20043;-62
2023/07/22 07:04:49;;;;;;;21.40;12.45;;;;;;;;;;5101263;28;20039;-62
2023/07/22 07:07:15;;;;;;;16.98;12.27;;;;;;;;;;5092030;28;20023;-63
2023/07/22 07:09:40;;;;;;;16.02;11.38;;;;;;;;;;5092494;28;20103;-64
2023/07/22 07:12:06;;;;;;;15.30;11.35;;;;;;;;;;5093080;28;20027;-63
2023/07/22 07:14:32;;;;;;;21.48;12.30;;;;;;;;;;5092480;28;20359;-63
2023/07/22 07:16:57;;;;;;;15.45;11.98;;;;;;;;;;5106020;28;20051;-62
2023/07/22 07:19:22;;;;;;;16.00;11.03;;;;;;;;;;5102652;28;20047;-63
2023/07/22 07:21:47;;;;;;;13.10;10.73;;;;;;;;;;5094708;28;20278;-63
2023/07/22 07:24:13;;;;;;;15.93;12.20;;;;;;;;;;5092788;28;20796;-63
2023/07/22 07:26:38;;;;;;;17.33;12.35;;;;;;;;;;5106383;28;20343;-63
2023/07/22 07:29:03;;;;;;;17.83;11.15;;;;;;;;;;5093244;28;20496;-63
2023/07/22 07:31:29;;;;;;;18.80;11.65;;;;;;;;;;5109697;28;20035;-63
2023/07/22 07:33:54;;;;;;;18.60;10.98;;;;;;;;;;5100432;28;20035;-63
2023/07/22 07:36:20;;;;;;;18.70;11.33;;;;;;;;;;5093090;28;20470;-63
2023/07/22 07:38:45;;;;;;;17.95;10.02;;;;;;;;;;5091583;28;20274;-63
2023/07/22 07:41:13;;;;;;;18.42;10.38;;;;;;;;;;5096422;28;20016;-64
2023/07/22 07:43:42;;;;;;;14.35;10.05;;;;;;;;;;5098049;28;20038;-63
2023/07/22 07:46:13;;;;;;;13.38;10.07;;;;;;;;;;5111510;28;20085;-63
2023/07/22 07:48:38;;;;;;;12.20;9.15;;;;;;;;;;5099349;28;20023;-62
2023/07/22 07:51:03;;;;;;;16.00;9.90;;;;;;;;;;5110730;28;20039;-63
2023/07/22 07:53:29;;;;;;;10.90;9.67;;;;;;;;;;5092044;28;20274;-63
2023/07/22 07:55:54;;;;;;;18.77;9.90;;;;;;;;;;5105152;28;20269;-63
2023/07/22 07:58:19;;;;;;;15.18;9.48;;;;;;;;;;5100637;28;20355;-63
2023/07/22 08:00:44;;;;;;;15.43;9.60;;;;;;;;;;5104995;28;20017;-63
2023/07/22 08:03:10;;;;;;;11.68;9.65;;;;;;;;;;5101839;28;20076;-63
2023/07/22 08:05:35;;;;;;;13.63;8.73;;;;;;;;;;5110614;28;20409;-63
2023/07/22 08:08:00;;;;;;;19.13;9.43;;;;;;;;;;5111002;28;20046;-63
2023/07/22 08:10:25;;;;;;;17.13;8.60;;;;;;;;;;5108265;28;20414;-63
2023/07/22 08:12:51;;;;;;;13.68;8.90;;;;;;;;;;5111831;28;20277;-63
2023/07/22 08:15:16;;;;;;;17.50;8.77;;;;;;;;;;5104347;28;20377;-64
2023/07/22 08:17:42;;;;;;;14.63;8.70;;;;;;;;;;5101934;28;20036;-64
2023/07/22 08:20:08;;;;;;;11.03;7.73;;;;;;;;;;5107332;28;20027;-63
2023/07/22 08:22:33;;;;;;;15.63;7.93;;;;;;;;;;5110857;28;20269;-62
2023/07/22 08:24:58;;;;;;;11.07;7.63;;;;;;;;;;5110129;28;20043;-63
2023/07/22 08:27:24;;;;;;;13.30;7.53;;;;;;;;;;5111200;28;20323;-63
2023/07/22 08:29:49;;;;;;;13.15;7.97;;;;;;;;;;5110185;28;20269;-63
2023/07/22 08:32:14;;;;;;;13.35;7.40;;;;;;;;;;5111771;28;20019;-63
2023/07/22 08:34:39;;;;;;;11.37;7.37;;;;;;;;;;5110474;28;20433;-63
2023/07/22 08:37:05;;;;;;;11.20;7.37;;;;;;;;;;5112586;28;20288;-63
2023/07/22 08:39:31;;;;;;;7.67;5.43;;;;;;;;;;5109617;28;20270;-63
2023/07/22 08:41:59;;;;;;;18.05;8.13;;;;;;;;;;5106538;28;20270;-64
2023/07/22 08:44:29;;;;;;;17.08;7.78;;;;;;;;;;5105350;28;20409;-63
2023/07/22 08:46:55;;;;;;;12.60;7.45;;;;;;;;;;5103272;28;20035;-64
2023/07/22 08:49:21;;;;;;;10.90;6.70;;;;;;;;;;5107004;28;20031;-64
2023/07/22 08:51:46;;;;;;;10.57;5.45;;;;;;;;;;5114762;28;20024;-64
2023/07/22 08:54:12;;;;;;;15.35;7.03;;;;;;;;;;5110449;28;20035;-64
2023/07/22 08:56:38;;;;;;;10.68;5.60;;;;;;;;;;5103384;28;20026;-65
2023/07/22 08:59:05;;;;;;;8.75;6.03;;;;;;;;;;5093797;28;20019;-64
2023/07/22 09:01:31;;;;;;;11.40;5.95;;;;;;;;;;5094312;28;20033;-64
2023/07/22 09:03:58;;;;;;;12.13;6.40;;;;;;;;;;5111496;28;20023;-63
2023/07/22 09:06:23;;;;;;;11.13;5.70;;;;;;;;;;5114407;28;20382;-64
2023/07/22 09:08:48;;;;;;;12.82;6.28;;;;;;;;;;5113582;28;20038;-64
2023/07/22 09:11:15;;;;;;;12.75;5.63;;;;;;;;;;5102759;28;20059;-63
2023/07/22 09:13:42;;;;;;;8.57;5.38;;;;;;;;;;5098679;28;20024;-61
2023/07/22 09:16:07;;;;;;;9.45;6.22;;;;;;;;;;5103626;28;20103;-62
2023/07/22 09:18:34;;;;;;;13.88;5.40;;;;;;;;;;5094296;28;20103;-63
2023/07/22 09:20:59;;;;;;;6.93;4.45;;;;;;;;;;5093935;28;20032;-64
2023/07/22 09:23:37;;;;;;;7.75;5.00;;;;;;;;;;5094361;28;20024;-63
2023/07/22 09:26:12;;;;;;;9.50;5.40;;;;;;;;;;5094105;28;20107;-63
2023/07/22 09:28:48;;;;;;;8.02;5.47;;;;;;;;;;5094186;28;20478;-63
2023/07/22 09:31:13;;;;;;;7.45;5.13;;;;;;;;;;5104632;28;20015;-62
2023/07/22 09:33:38;;;;;;;9.80;5.63;;;;;;;;;;5111675;28;20024;-64
2023/07/22 09:36:04;;;;;;;6.10;4.50;;;;;;;;;;5112505;28;20303;-63
2023/07/22 09:38:29;;;;;;;8.90;4.88;;;;;;;;;;5102829;28;20732;-63
2023/07/22 09:40:54;;;;;;;7.78;4.55;;;;;;;;;;5112353;28;20027;-63
2023/07/22 09:43:22;;;;;;;8.70;4.00;;;;;;;;;;5093679;28;20020;-63
2023/07/22 09:45:49;;;;;;;6.82;4.38;;;;;;;;;;5096918;28;20110;-63
2023/07/22 09:48:14;;;;;;;9.10;4.28;;;;;;;;;;5097207;28;20064;-64
2023/07/22 09:50:40;;;;;;;4.43;3.25;;;;;;;;;;5095274;28;20028;-64
2023/07/22 09:53:05;;;;;;;11.27;3.57;;;;;;;;;;5095977;28;20046;-64
2023/07/22 09:55:31;;;;;;;5.72;3.25;;;;;;;;;;5104295;28;20350;-63
2023/07/22 09:57:58;;;;;;;4.78;2.85;;;;;;;;;;5096591;28;20024;-63
2023/07/22 10:00:25;;;;;;;7.72;2.28;;;;;;;;;;5092862;28;20026;-63
2023/07/22 10:02:51;;;;;;;4.20;2.17;;;;;;;;;;5094812;28;20024;-64
2023/07/22 10:05:17;;;;;;;5.55;2.65;;;;;;;;;;5099035;28;20101;-64
2023/07/22 10:07:44;;;;;;;5.18;2.65;;;;;;;;;;5113320;28;20038;-63
2023/07/22 10:10:10;;;;;;;5.78;2.38;;;;;;;;;;5112616;28;20023;-62
2023/07/22 10:12:36;;;;;;;10.98;2.70;;;;;;;;;;5108175;28;20110;-63
2023/07/22 10:15:04;;;;;;;4.90;2.40;;;;;;;;;;5112379;28;20073;-64
2023/07/22 10:17:29;;;;;;;7.55;2.83;;;;;;;;;;5104120;28;20166;-65
2023/07/22 10:19:55;;;;;;;5.45;2.42;;;;;;;;;;5100588;28;20110;-63
2023/07/22 10:22:20;;;;;;;3.92;2.10;;;;;;;;;;5095819;28;20505;-65
2023/07/22 10:24:47;;;;;;;5.28;2.88;;;;;;;;;;5107762;28;20039;-65
2023/07/22 10:27:13;;;;;;;5.72;2.20;;;;;;;;;;5109111;28;20016;-64
2023/07/22 10:29:39;;;;;;;4.32;2.10;;;;;;;;;;5110384;28;20386;-62
2023/07/22 10:32:04;;;;;;;2.85;1.80;;;;;;;;;;5108775;28;20015;-62
2023/07/22 10:34:30;;;;;;;4.55;2.17;;;;;;;;;;5110100;28;20035;-63
2023/07/22 10:36:58;;;;;;;4.17;2.17;;;;;;;;;;5104379;28;20077;-64
2023/07/22 10:39:27;;;;;;;5.72;2.53;;;;;;;;;;5104072;28;20265;-64
2023/07/22 10:42:04;;;;;;;4.80;2.70;;;;;;;;;;5099029;28;20032;-63
2023/07/22 10:44:30;;;;;;;4.00;2.33;;;;;;;;;;5101122;28;20039;-62
2023/07/22 10:46:57;;;;;;;5.28;2.30;;;;;;;;;;5099371;28;20117;-64
2023/07/22 10:49:22;;;;;;;5.65;2.00;;;;;;;;;;5111012;28;20031;-63
2023/07/22 10:51:49;;;;;;;4.77;2.27;;;;;;;;;;5110108;28;20032;-63
2023/07/22 10:54:15;;;;;;;4.97;2.50;;;;;;;;;;5096884;28;20661;-63
2023/07/22 10:56:44;;;;;;;4.55;2.10;;;;;;;;;;5100237;28;20069;-62
2023/07/22 10:59:10;;;;;;;5.15;2.15;;;;;;;;;;5108618;28;20020;-64
2023/07/22 11:01:36;;;;;;;5.75;2.38;;;;;;;;;;5111209;28;20023;-64
2023/07/22 11:04:16;;;;;;;8.43;2.17;;;;;;;;;;5107368;28;20024;-64
2023/07/22 11:06:48;;;;;;;5.82;1.90;;;;;;;;;;5104660;28;20404;-64
2023/07/22 11:09:34;;;;;;;5.15;2.55;;;;;;;;;;5092932;28;20024;-64
2023/07/22 11:12:04;;;;;;;4.13;2.20;;;;;;;;;;5099835;28;20542;-63
2023/07/22 11:14:30;;;;;;;7.97;2.13;;;;;;;;;;5106564;28;20036;-64
2023/07/22 11:17:00;;;;;;;2.97;1.77;;;;;;;;;;5106870;28;20125;-62
2023/07/22 11:19:26;;;;;;;4.32;2.00;;;;;;;;;;5109144;28;20398;-63
2023/07/22 11:21:52;;;;;;;4.25;2.05;;;;;;;;;;5105963;28;20043;-64
2023/07/22 11:24:18;;;;;;;7.10;2.30;;;;;;;;;;5108914;28;20035;-64
2023/07/22 11:26:44;;;;;;;8.15;2.05;;;;;;;;;;5097193;28;20028;-64
2023/07/22 11:29:10;;;;;;;4.72;1.80;;;;;;;;;;5112085;28;20023;-63
2023/07/22 11:31:36;;;;;;;4.38;1.83;;;;;;;;;;5106129;28;20035;-63
2023/07/22 11:34:02;;;;;;;4.43;1.90;;;;;;;;;;5109252;28;20051;-63
2023/07/22 11:36:27;;;;;;;3.90;2.17;;;;;;;;;;5105446;28;20386;-66
2023/07/22 11:38:54;;;;;;;4.30;2.17;;;;;;;;;;5109107;28;20053;-65
2023/07/22 11:41:19;;;;;;;2.65;1.50;;;;;;;;;;5105789;28;20105;-64
2023/07/22 11:43:45;;;;;;;3.83;2.13;;;;;;;;;;5110752;28;20031;-64
2023/07/22 11:46:10;;;;;;;5.60;1.73;;;;;;;;;;5103062;28;20032;-65
2023/07/22 11:48:35;;;;;;;4.43;2.13;;;;;;;;;;5098593;28;20428;-64
2023/07/22 11:51:01;;;;;;;7.85;2.38;;;;;;;;;;5108016;28;20011;-63
2023/07/22 11:53:29;;;;;;;3.70;2.28;;;;;;;;;;5108778;28;20556;-63
2023/07/22 11:55:55;;;;;;;5.10;2.25;;;;;;;;;;5102521;28;20383;-65
2023/07/22 11:58:24;;;;;;;3.40;1.90;;;;;;;;;;5100241;28;20027;-62
2023/07/22 12:01:01;;;;;;;7.88;2.47;;;;;;;;;;5096301;28;20116;-62
2023/07/22 12:03:30;;;;;;;4.57;2.08;;;;;;;;;;5101063;28;20047;-63
2023/07/22 12:06:00;;;;;;;5.82;2.50;;;;;;;;;;5098511;28;20036;-63
2023/07/22 12:08:25;;;;;;;3.90;2.00;;;;;;;;;;5103311;28;20474;-63
2023/07/22 12:10:59;;;;;;;4.00;2.30;;;;;;;;;;5106959;28;20052;-63
2023/07/22 12:13:25;;;;;;;3.92;2.13;;;;;;;;;;5106959;28;20376;-63
2023/07/22 12:16:00;;;;;;;4.28;2.45;;;;;;;;;;5107340;28;20052;-67
2023/07/22 12:18:25;;;;;;;7.57;2.42;;;;;;;;;;5100117;28;20046;-65
2023/07/22 12:20:51;;;;;;;7.67;2.57;;;;;;;;;;5107873;28;20442;-64
2023/07/22 12:23:16;;;;;;;4.97;2.35;;;;;;;;;;5105586;28;20433;-64
2023/07/22 12:25:41;;;;;;;4.53;2.23;;;;;;;;;;5100704;28;20085;-64
2023/07/22 12:28:07;;;;;;;3.58;2.30;;;;;;;;;;5108543;28;20420;-64
2023/07/22 12:30:33;;;;;;;5.63;2.25;;;;;;;;;;5101553;28;20020;-64
2023/07/22 12:32:58;;;;;;;8.07;2.75;;;;;;;;;;5100761;28;20367;-65
2023/07/22 12:35:23;;;;;;;7.33;2.30;;;;;;;;;;5103310;28;20024;-65
2023/07/22 12:37:49;;;;;;;4.75;2.00;;;;;;;;;;5108183;28;20446;-65
2023/07/22 12:40:14;;;;;;;7.23;2.10;;;;;;;;;;5103502;28;20016;-64
2023/07/22 12:42:40;;;;;;;5.27;2.10;;;;;;;;;;5107107;28;20323;-63
2023/07/22 12:45:05;;;;;;;8.00;2.53;;;;;;;;;;5103914;28;20389;-63
2023/07/22 12:47:31;;;;;;;3.95;1.95;;;;;;;;;;5109316;28;20024;-65
2023/07/22 12:49:56;;;;;;;7.05;2.30;;;;;;;;;;5109084;28;20478;-61
2023/07/22 12:52:21;;;;;;;3.70;1.80;;;;;;;;;;5109727;28;20015;-64
2023/07/22 12:54:46;;;;;;;4.87;1.90;;;;;;;;;;5103663;28;20382;-64
2023/07/22 12:57:14;;;;;;;4.50;1.93;;;;;;;;;;5109960;28;20281;-64
2023/07/22 12:59:40;;;;;;;3.53;1.95;;;;;;;;;;5106518;28;20323;-64
2023/07/22 13:02:06;;;;;;;5.10;2.20;;;;;;;;;;5108226;28;20019;-64
2023/07/22 13:04:31;;;;;;;5.45;2.33;;;;;;;;;;5110667;28;20084;-63
2023/07/22 13:06:56;;;;;;;5.53;1.90;;;;;;;;;;5112086;28;20062;-63
2023/07/22 13:09:22;;;;;;;3.67;1.67;;;;;;;;;;5112445;28;20030;-63
2023/07/22 13:11:47;;;;;;;2.90;1.53;;;;;;;;;;5112218;28;20111;-64
2023/07/22 13:14:12;;;;;;;5.93;1.75;;;;;;;;;;5112706;28;20276;-65
2023/07/22 13:16:38;;;;;;;3.60;1.83;;;;;;;;;;5110437;28;20119;-66
2023/07/22 13:19:03;;;;;;;7.38;1.90;;;;;;;;;;5105091;28;20393;-65
2023/07/22 13:21:29;;;;;;;4.55;1.55;;;;;;;;;;5110410;28;20027;-65
2023/07/22 13:23:54;;;;;;;3.13;1.30;;;;;;;;;;5111579;28;20382;-65
2023/07/22 13:26:19;;;;;;;3.60;1.70;;;;;;;;;;5109127;28;20068;-64
2023/07/22 13:28:47;;;;;;;7.47;2.07;;;;;;;;;;5097383;28;20294;-64
2023/07/22 13:31:15;;;;;;;3.58;1.83;;;;;;;;;;5109407;28;20447;-62
2023/07/22 13:33:40;;;;;;;4.47;1.80;;;;;;;;;;5100657;28;20054;-64
2023/07/22 13:36:09;;;;;;;7.07;2.10;;;;;;;;;;5110664;28;20077;-63
2023/07/22 13:38:34;;;;;;;3.47;1.73;;;;;;;;;;5113632;28;20281;-63
2023/07/22 13:40:59;;;;;;;4.55;2.20;;;;;;;;;;5101425;28;20091;-63
2023/07/22 13:43:25;;;;;;;3.83;1.53;;;;;;;;;;5110010;28;20366;-63
2023/07/22 13:45:50;;;;;;;3.05;1.45;;;;;;;;;;5111577;28;20289;-63
2023/07/22 13:48:15;;;;;;;3.83;1.77;;;;;;;;;;5111027;28;20089;-63
2023/07/22 13:50:42;;;;;;;4.50;2.40;;;;;;;;;;5113294;28;20824;-63
2023/07/22 13:53:07;;;;;;;3.50;1.55;;;;;;;;;;5099366;28;20763;-63
2023/07/22 13:55:32;;;;;;;2.88;1.73;;;;;;;;;;5113070;28;20076;-62
2023/07/22 13:57:57;;;;;;;9.17;2.17;;;;;;;;;;5105561;28;20059;-63
2023/07/22 14:00:23;;;;;;;18.27;2.37;;;;;;;;;;5107739;28;20269;-63
2023/07/22 14:02:48;;;;;;;5.97;2.13;;;;;;;;;;5105903;28;20040;-61
2023/07/22 14:05:13;;;;;;;6.32;2.78;;;;;;;;;;5107047;28;20303;-62
2023/07/22 14:07:38;;;;;;;5.10;1.90;;;;;;;;;;5093957;28;20081;-61
2023/07/22 14:10:05;;;;;;;5.77;2.00;;;;;;;;;;5106575;28;20268;-62
2023/07/22 14:12:30;;;;;;;4.63;2.25;;;;;;;;;;5101637;28;20364;-61
2023/07/22 14:14:55;;;;;;;3.70;2.30;;;;;;;;;;5099737;28;20091;-62
2023/07/22 14:17:20;;;;;;;4.93;2.40;;;;;;;;;;5100790;28;20281;-62
2023/07/22 14:19:46;;;;;;;5.20;2.57;;;;;;;;;;5113631;28;20126;-64
2023/07/22 14:22:11;;;;;;;4.90;2.38;;;;;;;;;;5106665;28;20357;-61